Time;durP1;ratioP1;P1;durP2;ratioP2;P2;SDS_P1;SDS_P2;PMS_P1;PMS_P2;Temp;Humidity;BMP_temperature;BMP_pressure;BME280_temperature;BME280_humidity;BME280_pressure;Samples;Min_cycle;Max_cycle;Signal;HPM_P1;HPM_P2
2021/10/05 00:01:03;;;;;;;21.35;14.13;;;;;;;6.49;84.94;101268.14;1726341;80;21864;-71
2021/10/05 00:03:29;;;;;;;20.70;15.68;;;;;;;6.50;85.06;101265.30;1725253;80;21015;-72
2021/10/05 00:05:56;;;;;;;20.02;14.58;;;;;;;6.47;85.36;101265.67;1768184;80;21038;-75
2021/10/05 00:08:22;;;;;;;24.02;16.62;;;;;;;6.45;85.29;101265.02;1750216;80;21011;-75
2021/10/05 00:10:48;;;;;;;27.20;15.30;;;;;;;6.40;85.72;101259.90;1793178;79;20982;-69
2021/10/05 00:13:15;;;;;;;23.15;14.60;;;;;;;6.38;85.89;101261.95;1744020;81;20946;-71
2021/10/05 00:15:41;;;;;;;22.05;15.05;;;;;;;6.41;85.85;101263.73;1785731;79;21050;-73
2021/10/05 00:18:08;;;;;;;26.42;18.05;;;;;;;6.47;85.76;101261.67;1785609;79;21243;-75
2021/10/05 00:20:34;;;;;;;24.82;19.32;;;;;;;6.48;85.54;101262.47;1743206;81;20991;-73
2021/10/05 00:23:00;;;;;;;31.80;18.95;;;;;;;6.43;85.76;101259.02;1744451;79;20969;-74
2021/10/05 00:25:27;;;;;;;31.35;20.32;;;;;;;6.38;86.02;101255.27;1755479;79;20977;-74
2021/10/05 00:27:53;;;;;;;24.92;19.73;;;;;;;6.32;86.23;101251.48;1789692;79;21085;-74
2021/10/05 00:30:20;;;;;;;25.60;20.12;;;;;;;6.29;86.52;101258.50;1772936;79;21495;-74
2021/10/05 00:32:46;;;;;;;27.00;17.95;;;;;;;6.25;86.93;101257.72;1770849;79;21065;-69
2021/10/05 00:35:12;;;;;;;32.33;18.30;;;;;;;6.26;87.17;101259.39;1784580;79;20997;-72
2021/10/05 00:37:39;;;;;;;40.63;20.72;;;;;;;6.27;87.19;101257.05;1762196;81;20903;-71
2021/10/05 00:40:06;;;;;;;33.65;18.60;;;;;;;6.25;87.54;101261.73;1718582;81;20995;-71
2021/10/05 00:42:33;;;;;;;28.17;18.90;;;;;;;6.24;87.63;101257.39;1736442;82;21045;-71
2021/10/05 00:44:59;;;;;;;29.15;19.30;;;;;;;6.23;87.77;101253.92;1766863;80;21599;-75
2021/10/05 00:47:25;;;;;;;31.90;18.57;;;;;;;6.20;87.94;101259.61;1769300;79;21545;-75
2021/10/05 00:49:51;;;;;;;23.80;15.90;;;;;;;6.16;88.02;101262.33;1774486;80;21088;-76
2021/10/05 00:52:18;;;;;;;34.10;17.85;;;;;;;6.16;88.28;101256.98;1759780;80;21620;-78
2021/10/05 00:54:45;;;;;;;25.00;17.27;;;;;;;6.22;88.27;101267.45;1797594;79;22019;-77
2021/10/05 00:57:12;;;;;;;24.10;17.77;;;;;;;6.28;88.32;101260.87;1737167;82;21646;-77
2021/10/05 00:59:38;;;;;;;26.02;17.02;;;;;;;6.32;88.11;101261.34;1752656;80;21453;-77
2021/10/05 01:02:11;;;;;;;23.45;14.85;;;;;;;6.31;88.08;101263.67;1748563;81;21006;-75
2021/10/05 01:04:39;;;;;;;21.57;13.78;;;;;;;6.31;88.13;101267.18;1787722;79;21019;-76
2021/10/05 01:07:09;;;;;;;23.75;15.40;;;;;;;6.32;88.12;101269.34;1745383;80;21014;-76
2021/10/05 01:09:35;;;;;;;23.80;14.50;;;;;;;6.33;88.24;101275.02;1765186;81;21041;-68
2021/10/05 01:12:04;;;;;;;23.47;16.67;;;;;;;6.35;88.16;101281.83;1779459;80;21645;-66
2021/10/05 01:14:30;;;;;;;26.12;18.48;;;;;;;6.32;88.16;101276.03;1743055;80;21042;-68
2021/10/05 01:16:58;;;;;;;31.35;19.60;;;;;;;6.24;88.65;101276.09;1756781;80;21595;-68
2021/10/05 01:19:24;;;;;;;28.35;18.70;;;;;;;6.17;88.82;101277.85;1739316;80;21708;-71
2021/10/05 01:21:50;;;;;;;26.95;16.42;;;;;;;6.13;89.32;101281.40;1766186;80;21614;-72
2021/10/05 01:24:20;;;;;;;23.32;15.65;;;;;;;6.12;89.46;101278.40;1771765;80;21574;-71
2021/10/05 01:26:46;;;;;;;33.23;19.85;;;;;;;6.14;89.51;101282.53;1752654;81;21078;-72
2021/10/05 01:29:17;;;;;;;26.93;14.68;;;;;;;6.14;89.63;101278.52;1756957;80;21066;-71
2021/10/05 01:31:46;;;;;;;27.20;15.78;;;;;;;6.12;89.75;101281.91;1783175;80;22229;-69
2021/10/05 01:34:13;;;;;;;28.57;15.00;;;;;;;6.04;90.11;101279.28;1777283;79;21518;-70
2021/10/05 01:36:39;;;;;;;20.43;14.30;;;;;;;5.99;90.83;101283.54;1724872;81;21578;-70
2021/10/05 01:39:26;;;;;;;24.32;16.30;;;;;;;5.99;91.02;101285.70;1753314;80;20971;-71
2021/10/05 01:41:55;;;;;;;25.97;16.05;;;;;;;5.99;90.97;101288.88;1725157;81;21012;-71
2021/10/05 01:44:24;;;;;;;25.90;16.60;;;;;;;5.96;91.34;101287.89;1737493;80;21222;-71
2021/10/05 01:46:50;;;;;;;23.07;14.87;;;;;;;5.91;91.34;101283.59;1755058;80;20912;-70
2021/10/05 01:49:18;;;;;;;23.55;15.85;;;;;;;5.89;91.44;101283.79;1782841;80;20955;-72
2021/10/05 01:51:45;;;;;;;25.55;16.60;;;;;;;5.90;91.66;101287.30;1755634;80;21520;-70
2021/10/05 01:54:11;;;;;;;29.52;17.77;;;;;;;5.89;91.69;101285.63;1735473;81;21521;-72
2021/10/05 01:56:38;;;;;;;31.75;17.52;;;;;;;5.90;91.77;101291.30;1752963;81;22211;-73
2021/10/05 01:59:04;;;;;;;26.55;16.52;;;;;;;5.91;91.87;101291.09;1725674;81;21051;-71
2021/10/05 02:01:31;;;;;;;23.10;16.35;;;;;;;5.91;92.14;101295.11;1753097;80;21560;-71
2021/10/05 02:03:58;;;;;;;24.82;17.35;;;;;;;5.88;92.32;101300.81;1727717;81;21026;-69
2021/10/05 02:06:24;;;;;;;22.42;16.17;;;;;;;5.87;92.63;101292.98;1752888;81;21094;-71
2021/10/05 02:08:51;;;;;;;23.77;17.12;;;;;;;5.84;92.72;101306.16;1753616;80;21551;-70
2021/10/05 02:11:17;;;;;;;25.52;16.80;;;;;;;5.83;92.74;101297.82;1753318;81;21008;-70
2021/10/05 02:13:43;;;;;;;23.55;17.32;;;;;;;5.77;93.14;101302.53;1778091;80;20997;-72
2021/10/05 02:16:10;;;;;;;28.90;20.45;;;;;;;5.73;93.20;101306.58;1798864;79;20910;-70
2021/10/05 02:18:36;;;;;;;26.52;19.77;;;;;;;5.70;93.58;101303.77;1760894;81;21083;-70
2021/10/05 02:21:03;;;;;;;27.75;19.00;;;;;;;5.69;93.75;101305.28;1730500;81;21052;-70
2021/10/05 02:26:14;;;;;;;23.02;18.07;;;;;;;5.68;94.25;101306.28;1753521;81;20939;-71
2021/10/05 02:28:41;;;;;;;31.23;21.50;;;;;;;5.70;94.01;101307.78;1729587;80;21533;-71
2021/10/05 02:31:08;;;;;;;27.98;20.90;;;;;;;5.71;94.17;101315.25;1750639;80;20953;-70
2021/10/05 02:33:34;;;;;;;29.87;21.30;;;;;;;5.70;94.26;101314.45;1761695;80;21084;-70
2021/10/05 02:36:00;;;;;;;31.95;23.27;;;;;;;5.70;94.41;101315.78;1729370;82;21024;-70
2021/10/05 02:38:27;;;;;;;31.52;20.85;;;;;;;5.65;94.49;101311.98;1751049;80;20949;-70
2021/10/05 02:40:55;;;;;;;31.17;19.73;;;;;;;5.61;94.58;101318.70;1750831;81;20961;-69
2021/10/05 02:43:21;;;;;;;33.15;22.07;;;;;;;5.57;95.06;101317.36;1738562;80;21631;-69
2021/10/05 02:45:47;;;;;;;35.90;20.23;;;;;;;5.57;95.16;101324.03;1767190;81;21084;-69
2021/10/05 02:48:14;;;;;;;30.10;22.13;;;;;;;5.58;95.28;101321.70;1767093;81;21501;-70
2021/10/05 02:50:40;;;;;;;27.35;19.95;;;;;;;5.57;95.43;101322.20;1767723;79;21021;-70
2021/10/05 02:53:06;;;;;;;32.35;21.48;;;;;;;5.59;95.39;101318.86;1780075;79;21006;-71
2021/10/05 02:55:32;;;;;;;32.88;18.30;;;;;;;5.61;95.46;101323.50;1766847;80;21062;-70
2021/10/05 02:57:59;;;;;;;35.05;22.50;;;;;;;5.62;95.75;101329.17;1767240;81;20992;-70
2021/10/05 03:00:25;;;;;;;27.77;20.15;;;;;;;5.63;95.79;101320.66;1745277;79;21068;-69
2021/10/05 03:02:52;;;;;;;29.05;20.37;;;;;;;5.65;95.67;101324.83;1734504;81;21053;-71
2021/10/05 03:05:18;;;;;;;27.40;18.23;;;;;;;5.66;95.62;101331.80;1758879;80;20918;-71
2021/10/05 03:07:45;;;;;;;30.60;20.10;;;;;;;5.68;95.72;101331.64;1781462;79;21004;-73
2021/10/05 03:10:12;;;;;;;26.30;18.75;;;;;;;5.65;95.73;101330.17;1755657;80;21270;-69
2021/10/05 03:12:38;;;;;;;27.10;18.40;;;;;;;5.66;95.81;101331.80;1715285;82;20952;-69
2021/10/05 03:15:06;;;;;;;31.20;20.32;;;;;;;5.62;96.02;101333.67;1724447;82;20991;-71
2021/10/05 03:17:34;;;;;;;30.80;22.13;;;;;;;5.62;95.96;101333.17;1703626;83;21018;-72
2021/10/05 03:20:01;;;;;;;25.82;18.67;;;;;;;5.60;95.93;101331.70;1737092;81;21078;-70
2021/10/05 03:22:27;;;;;;;27.82;19.55;;;;;;;5.58;96.20;101339.05;1706808;81;21084;-71
2021/10/05 03:24:53;;;;;;;30.37;18.92;;;;;;;5.53;96.66;101340.08;1723105;82;21007;-71
2021/10/05 03:27:20;;;;;;;28.10;21.65;;;;;;;5.50;96.86;101340.44;1739937;82;20975;-72
2021/10/05 03:29:46;;;;;;;28.67;19.90;;;;;;;5.52;96.80;101337.91;1678883;84;20985;-72
2021/10/05 03:32:12;;;;;;;27.93;19.50;;;;;;;5.54;96.85;101337.74;1714158;83;21114;-71
2021/10/05 03:34:39;;;;;;;27.07;19.98;;;;;;;5.54;96.72;101338.58;1701486;83;21268;-71
2021/10/05 03:37:05;;;;;;;26.33;18.07;;;;;;;5.55;96.74;101342.08;1717413;81;21469;-71
2021/10/05 03:39:32;;;;;;;30.32;21.50;;;;;;;5.55;96.68;101336.73;1683607;81;21002;-71
2021/10/05 03:41:58;;;;;;;31.35;20.20;;;;;;;5.55;96.73;101335.41;1701117;82;20967;-71
2021/10/05 03:44:24;;;;;;;30.97;20.25;;;;;;;5.53;96.66;101334.73;1772295;80;21030;-71
2021/10/05 03:46:51;;;;;;;30.92;20.62;;;;;;;5.51;96.74;101339.44;1710396;82;21851;-72
2021/10/05 03:49:18;;;;;;;29.07;19.65;;;;;;;5.50;96.64;101346.61;1722074;82;21559;-70
2021/10/05 03:51:46;;;;;;;29.00;19.30;;;;;;;5.50;96.73;101340.44;1737900;82;21043;-72
2021/10/05 03:54:15;;;;;;;31.05;20.30;;;;;;;5.47;96.76;101344.77;1725643;82;21046;-73
2021/10/05 03:56:41;;;;;;;28.12;20.43;;;;;;;5.50;96.83;101351.95;1725709;82;21028;-72
2021/10/05 03:59:08;;;;;;;30.50;20.30;;;;;;;5.49;96.70;101348.95;1725082;82;22125;-70
2021/10/05 04:01:34;;;;;;;26.73;19.45;;;;;;;5.43;96.88;101351.47;1750424;82;21019;-71
2021/10/05 04:04:01;;;;;;;28.30;20.02;;;;;;;5.42;96.82;101349.30;1724672;82;21082;-70
2021/10/05 04:06:27;;;;;;;28.52;20.50;;;;;;;5.42;97.00;101351.17;1750940;82;20931;-71
2021/10/05 04:08:54;;;;;;;34.60;21.25;;;;;;;5.41;97.17;101354.34;1739314;82;21551;-71
2021/10/05 04:11:20;;;;;;;37.08;21.23;;;;;;;5.42;97.17;101361.84;1738035;82;21198;-69
2021/10/05 04:13:47;;;;;;;42.20;24.00;;;;;;;5.38;97.01;101353.84;1750040;80;21023;-69
2021/10/05 04:16:13;;;;;;;41.53;24.67;;;;;;;5.38;97.16;101364.51;1783892;80;21006;-68
2021/10/05 04:18:39;;;;;;;49.88;25.45;;;;;;;5.38;97.16;101364.51;1782590;80;21015;-68
2021/10/05 04:21:06;;;;;;;35.78;21.52;;;;;;;5.41;96.99;101358.84;1752609;80;21031;-71
2021/10/05 04:23:33;;;;;;;42.13;23.70;;;;;;;5.48;97.11;101363.29;1784063;80;21878;-69
2021/10/05 04:25:59;;;;;;;43.10;22.52;;;;;;;5.51;96.93;101365.63;1754230;80;21323;-68
2021/10/05 04:28:25;;;;;;;31.97;20.20;;;;;;;5.53;96.63;101365.43;1754026;80;21002;-71
2021/10/05 04:30:54;;;;;;;30.92;19.27;;;;;;;5.52;96.36;101373.10;1783767;80;21015;-68
2021/10/05 04:33:20;;;;;;;35.65;23.20;;;;;;;5.41;96.27;101378.86;1755059;80;20991;-69
2021/10/05 04:35:46;;;;;;;35.15;24.15;;;;;;;5.41;96.27;101378.86;1755156;80;21110;-69
2021/10/05 04:38:13;;;;;;;41.45;22.42;;;;;;;5.37;96.46;101385.55;1783276;80;21578;-68
2021/10/05 04:40:39;;;;;;;40.08;24.82;;;;;;;5.31;96.73;101383.57;1783787;80;21053;-70
2021/10/05 04:43:05;;;;;;;28.73;19.12;;;;;;;5.31;96.73;101383.57;1756340;80;21008;-68
2021/10/05 04:45:32;;;;;;;38.75;23.83;;;;;;;5.32;96.96;101381.23;1724933;81;21027;-70
2021/10/05 04:47:58;;;;;;;30.48;21.60;;;;;;;5.32;96.99;101387.91;1725040;81;21175;-70
2021/10/05 04:50:24;;;;;;;39.30;22.30;;;;;;;5.33;97.11;101389.05;1753286;80;20974;-70
2021/10/05 04:52:51;;;;;;;26.52;18.15;;;;;;;5.35;96.96;101394.22;1776503;80;20995;-66
2021/10/05 04:55:17;;;;;;;30.80;21.37;;;;;;;5.40;96.95;101392.70;1783830;80;21027;-69
2021/10/05 04:57:43;;;;;;;34.65;22.13;;;;;;;5.42;96.89;101387.20;1755113;80;21082;-70
2021/10/05 05:00:11;;;;;;;31.77;18.60;;;;;;;5.49;96.88;101398.81;1782949;79;21167;-70
2021/10/05 05:02:37;;;;;;;36.45;22.45;;;;;;;5.51;96.67;101401.66;1754767;80;20908;-72
2021/10/05 05:05:05;;;;;;;32.83;21.97;;;;;;;5.55;96.42;101400.80;1755324;80;20920;-70
2021/10/05 05:07:33;;;;;;;42.10;24.75;;;;;;;5.55;96.36;101401.62;1755476;80;20947;-71
2021/10/05 05:10:02;;;;;;;44.05;25.70;;;;;;;5.58;96.11;101404.44;1782990;80;21483;-69
2021/10/05 05:12:29;;;;;;;55.92;32.55;;;;;;;5.57;95.98;101410.77;1762069;80;21248;-70
2021/10/05 05:14:56;;;;;;;50.17;30.05;;;;;;;5.52;96.13;101415.80;1724892;81;21018;-70
2021/10/05 05:17:22;;;;;;;49.10;27.30;;;;;;;5.53;96.14;101417.47;1725015;81;20982;-70
2021/10/05 05:19:52;;;;;;;35.33;24.05;;;;;;;5.58;96.15;101412.44;1753478;80;21090;-69
2021/10/05 05:22:18;;;;;;;60.28;24.80;;;;;;;5.67;96.18;101418.06;1718087;81;21019;-68
2021/10/05 05:24:44;;;;;;;40.30;25.95;;;;;;;5.73;96.02;101421.38;1724929;81;21545;-71
2021/10/05 05:27:11;;;;;;;50.05;26.50;;;;;;;5.83;95.96;101426.48;1725102;81;20962;-70
2021/10/05 05:29:38;;;;;;;53.38;26.80;;;;;;;5.86;95.66;101426.95;1725694;81;21082;-71
2021/10/05 05:32:06;;;;;;;48.40;23.30;;;;;;;5.94;95.59;101428.30;1754432;80;21019;-71
2021/10/05 05:34:32;;;;;;;49.58;24.87;;;;;;;5.96;95.01;101428.93;1723941;81;20974;-71
2021/10/05 05:36:58;;;;;;;61.83;28.50;;;;;;;5.97;94.60;101432.43;1753223;80;21503;-69
2021/10/05 05:39:24;;;;;;;48.33;25.90;;;;;;;5.97;94.55;101435.94;1765990;80;21712;-69
2021/10/05 05:41:51;;;;;;;59.93;27.75;;;;;;;6.05;94.62;101438.55;1769204;80;20927;-70
2021/10/05 05:44:17;;;;;;;71.40;27.82;;;;;;;6.17;94.60;101438.14;1755176;80;21516;-71
2021/10/05 05:46:43;;;;;;;52.30;25.23;;;;;;;6.30;94.57;101445.88;1784088;80;21120;-69
2021/10/05 05:49:09;;;;;;;57.45;29.23;;;;;;;6.40;93.79;101449.14;1754438;80;21048;-69
2021/10/05 05:51:36;;;;;;;63.38;27.75;;;;;;;6.42;93.13;101439.63;1739832;81;21046;-69
2021/10/05 05:54:03;;;;;;;56.02;25.52;;;;;;;6.48;92.90;101437.54;1725711;81;21540;-68
2021/10/05 05:56:31;;;;;;;61.13;27.00;;;;;;;6.52;92.68;101439.67;1750272;81;21570;-69
2021/10/05 05:58:59;;;;;;;48.52;24.87;;;;;;;6.61;92.35;101446.30;1764523;80;21035;-70
2021/10/05 06:01:26;;;;;;;61.23;26.75;;;;;;;6.64;91.73;101445.43;1782335;80;21140;-69
2021/10/05 06:03:52;;;;;;;56.13;26.62;;;;;;;6.65;91.36;101440.91;1733155;80;21066;-69
2021/10/05 06:06:18;;;;;;;44.30;24.00;;;;;;;6.66;91.25;101447.43;1784177;80;20974;-69
2021/10/05 06:08:45;;;;;;;44.25;23.45;;;;;;;6.71;91.11;101446.38;1755163;80;20912;-69
2021/10/05 06:11:12;;;;;;;38.10;24.90;;;;;;;6.74;90.85;101444.67;1749690;80;21540;-68
2021/10/05 06:13:39;;;;;;;38.13;23.27;;;;;;;6.81;90.83;101444.78;1753744;80;21909;-69
2021/10/05 06:16:06;;;;;;;38.45;21.77;;;;;;;6.89;90.83;101446.03;1783752;80;21036;-69
2021/10/05 06:18:32;;;;;;;39.03;23.27;;;;;;;6.97;90.46;101447.27;1755050;80;21047;-70
2021/10/05 06:20:58;;;;;;;27.40;20.72;;;;;;;7.00;90.20;101447.73;1774457;80;21586;-69
2021/10/05 06:23:25;;;;;;;40.20;22.10;;;;;;;7.06;90.07;101454.70;1725188;81;21059;-70
2021/10/05 06:25:54;;;;;;;30.57;21.35;;;;;;;7.13;90.02;101459.66;1725155;81;21011;-69
2021/10/05 06:28:21;;;;;;;28.55;22.95;;;;;;;7.19;89.92;101462.44;1753082;81;21476;-70
2021/10/05 06:30:47;;;;;;;38.67;23.83;;;;;;;7.24;89.58;101461.88;1753761;80;21070;-70
2021/10/05 06:33:13;;;;;;;31.12;22.70;;;;;;;7.30;89.54;101462.45;1733481;80;21019;-70
2021/10/05 06:35:40;;;;;;;44.63;26.02;;;;;;;7.40;89.45;101464.34;1783974;80;21038;-70
2021/10/05 06:38:06;;;;;;;47.38;23.30;;;;;;;7.49;89.10;101469.09;1726905;81;21308;-68
2021/10/05 06:40:33;;;;;;;43.25;23.57;;;;;;;7.61;89.17;101467.62;1753077;81;21062;-69
2021/10/05 06:43:00;;;;;;;36.93;22.35;;;;;;;7.74;88.78;101465.09;1756319;80;21622;-75
2021/10/05 06:45:28;;;;;;;34.23;21.25;;;;;;;7.83;88.31;101468.81;1769418;80;20999;-69
2021/10/05 06:47:54;;;;;;;31.90;20.48;;;;;;;7.88;88.05;101465.56;1759169;80;20994;-70
2021/10/05 06:50:21;;;;;;;36.33;23.05;;;;;;;7.95;87.77;101473.69;1725085;81;21046;-71
2021/10/05 06:52:47;;;;;;;30.68;20.97;;;;;;;8.01;87.61;101475.62;1753430;80;21070;-69
2021/10/05 06:55:14;;;;;;;27.67;20.05;;;;;;;8.12;87.59;101471.09;1752935;81;21456;-69
2021/10/05 06:57:40;;;;;;;43.55;23.27;;;;;;;8.21;87.22;101466.75;1773939;80;21090;-69
2021/10/05 07:00:13;;;;;;;38.92;23.12;;;;;;;8.33;87.10;101464.95;1712079;81;21555;-69
2021/10/05 07:02:37;;;;;;;27.62;18.90;;;;;;;8.41;86.75;101460.78;1725855;81;21148;-69
2021/10/05 07:05:05;;;;;;;29.70;19.98;;;;;;;8.49;86.36;101454.77;1780984;80;21006;-71
2021/10/05 07:07:31;;;;;;;32.75;20.85;;;;;;;8.56;86.20;101457.02;1765764;80;21504;-71
2021/10/05 07:09:59;;;;;;;47.35;22.30;;;;;;;8.67;86.17;101459.69;1752914;81;20959;-69
2021/10/05 07:12:26;;;;;;;22.85;16.00;;;;;;;8.81;86.04;101462.80;1725199;81;21059;-68
2021/10/05 07:14:52;;;;;;;25.52;17.67;;;;;;;8.96;85.61;101468.06;1725911;81;21972;-70
2021/10/05 07:17:19;;;;;;;32.50;20.23;;;;;;;9.07;85.01;101468.84;1766412;80;21026;-70
2021/10/05 07:19:45;;;;;;;32.50;19.98;;;;;;;9.13;84.27;101469.41;1783849;80;20944;-69
2021/10/05 07:22:11;;;;;;;34.58;19.98;;;;;;;9.21;84.18;101469.78;1755476;80;20975;-71
2021/10/05 07:24:38;;;;;;;26.25;19.07;;;;;;;9.30;83.93;101469.94;1754324;80;21055;-69
2021/10/05 07:27:04;;;;;;;28.62;17.32;;;;;;;9.40;83.46;101465.84;1745252;81;21057;-68
2021/10/05 07:29:31;;;;;;;25.95;18.07;;;;;;;9.50;83.03;101470.34;1753062;81;21057;-68
2021/10/05 07:31:57;;;;;;;44.90;22.13;;;;;;;9.63;82.65;101477.66;1752968;81;20990;-70
2021/10/05 07:34:24;;;;;;;30.88;21.82;;;;;;;9.73;82.01;101471.91;1753730;80;21007;-69
2021/10/05 07:36:50;;;;;;;27.75;20.57;;;;;;;9.80;81.31;101475.43;1732487;80;21508;-70
2021/10/05 07:39:16;;;;;;;38.70;20.50;;;;;;;9.88;81.06;101480.11;1755615;80;21543;-69
2021/10/05 07:41:43;;;;;;;33.70;20.75;;;;;;;9.96;80.68;101471.05;1755130;80;21010;-71
2021/10/05 07:44:12;;;;;;;29.25;19.37;;;;;;;10.03;79.77;101474.58;1780869;79;21547;-69
2021/10/05 07:46:39;;;;;;;35.83;18.20;;;;;;;10.10;79.69;101481.33;1733647;80;21576;-68
2021/10/05 07:49:06;;;;;;;27.17;17.52;;;;;;;10.19;79.12;101479.62;1783948;80;21043;-71
2021/10/05 07:51:33;;;;;;;23.67;18.92;;;;;;;10.29;78.77;101481.92;1783602;80;21042;-70
2021/10/05 07:54:00;;;;;;;23.67;18.45;;;;;;;10.33;78.21;101478.61;1775535;80;20983;-69
2021/10/05 07:56:27;;;;;;;22.90;18.35;;;;;;;10.40;78.22;101482.67;1753762;80;20944;-69
2021/10/05 07:58:53;;;;;;;24.45;18.62;;;;;;;10.50;78.04;101492.52;1725759;81;20967;-68
2021/10/05 08:01:19;;;;;;;29.52;19.62;;;;;;;10.59;77.60;101491.80;1752975;81;21073;-70
2021/10/05 08:03:46;;;;;;;27.82;19.42;;;;;;;10.68;77.12;101491.39;1725145;81;22311;-69
2021/10/05 08:06:12;;;;;;;24.43;18.50;;;;;;;10.79;76.65;101496.68;1723894;81;22203;-69
2021/10/05 08:08:39;;;;;;;25.68;17.92;;;;;;;10.89;76.03;101495.72;1752794;80;20999;-68
2021/10/05 08:11:05;;;;;;;25.57;17.67;;;;;;;10.99;75.86;101482.67;1783917;80;20995;-69
2021/10/05 08:13:32;;;;;;;28.20;18.70;;;;;;;11.10;75.65;101490.13;1754643;80;21000;-70
2021/10/05 08:15:58;;;;;;;24.18;16.40;;;;;;;11.20;75.12;101485.14;1780178;80;21104;-78
2021/10/05 08:18:24;;;;;;;22.32;16.48;;;;;;;11.29;74.89;101493.81;1755550;80;21026;-69
2021/10/05 08:20:51;;;;;;;20.80;17.12;;;;;;;11.36;74.63;101494.13;1749103;81;20995;-68
2021/10/05 08:23:21;;;;;;;24.85;16.87;;;;;;;11.45;74.27;101487.98;1725661;82;21035;-70
2021/10/05 08:25:47;;;;;;;31.40;18.60;;;;;;;11.58;74.00;101495.20;1749359;81;21515;-69
2021/10/05 08:28:13;;;;;;;20.12;16.20;;;;;;;11.73;73.82;101489.06;1744753;80;21115;-69
2021/10/05 08:30:39;;;;;;;21.05;16.40;;;;;;;11.88;73.37;101482.89;1755467;80;20955;-68
2021/10/05 08:33:06;;;;;;;21.95;17.25;;;;;;;12.02;72.33;101484.99;1780018;80;20893;-68
2021/10/05 08:35:33;;;;;;;24.85;16.15;;;;;;;12.14;71.91;101481.38;1755191;80;21082;-69
2021/10/05 08:38:00;;;;;;;35.13;18.60;;;;;;;12.25;71.29;101481.23;1728447;80;21023;-70
2021/10/05 08:40:27;;;;;;;24.10;15.80;;;;;;;12.33;70.65;101485.52;1779929;80;21535;-71
2021/10/05 08:42:54;;;;;;;31.27;18.05;;;;;;;12.42;70.46;101486.95;1780058;80;21480;-70
2021/10/05 08:45:20;;;;;;;30.72;15.30;;;;;;;12.51;69.72;101485.11;1779632;80;21094;-68
2021/10/05 08:47:49;;;;;;;24.45;16.00;;;;;;;12.59;69.35;101487.53;1754377;80;21152;-72
2021/10/05 08:50:16;;;;;;;20.95;16.23;;;;;;;12.71;68.70;101483.59;1749290;82;21090;-69
2021/10/05 08:52:44;;;;;;;25.97;16.67;;;;;;;12.79;68.01;101484.69;1749037;82;21119;-70
2021/10/05 08:55:11;;;;;;;30.92;17.52;;;;;;;12.88;68.06;101486.06;1749258;82;21020;-72
2021/10/05 08:57:38;;;;;;;22.73;16.82;;;;;;;12.97;67.58;101488.78;1749911;80;20939;-72
2021/10/05 09:00:08;;;;;;;17.27;13.10;;;;;;;13.05;66.69;101483.61;1775538;80;21079;-71
2021/10/05 09:02:52;;;;;;;26.45;14.53;;;;;;;13.13;65.98;101487.95;1726196;81;20975;-70
2021/10/05 09:05:18;;;;;;;17.32;12.82;;;;;;;13.19;66.08;101478.95;1714366;83;21383;-69
2021/10/05 09:07:49;;;;;;;18.40;14.63;;;;;;;13.27;65.67;101492.17;1713658;83;21022;-69
2021/10/05 09:10:20;;;;;;;17.30;12.00;;;;;;;13.37;65.02;101491.13;1700819;83;21008;-69
2021/10/05 09:12:47;;;;;;;18.17;13.35;;;;;;;13.47;64.39;101486.87;1666200;85;21823;-72
2021/10/05 09:15:16;;;;;;;17.17;12.80;;;;;;;13.58;63.90;101479.03;1700362;84;20984;-73
2021/10/05 09:17:52;;;;;;;17.50;13.80;;;;;;;13.64;63.02;101479.48;1715994;82;21336;-70
2021/10/05 09:20:28;;;;;;;13.83;12.30;;;;;;;13.71;63.11;101484.30;1687846;82;21000;-69
2021/10/05 09:22:57;;;;;;;19.32;14.20;;;;;;;13.80;63.15;101487.83;1732216;82;21667;-69
2021/10/05 09:25:29;;;;;;;22.55;15.63;;;;;;;13.89;62.54;101477.52;1711165;82;20981;-70
2021/10/05 09:27:57;;;;;;;13.35;11.95;;;;;;;13.98;62.42;101482.91;1705345;82;21541;-70
2021/10/05 09:30:25;;;;;;;15.05;11.55;;;;;;;14.06;62.04;101481.23;1685912;84;21753;-70
2021/10/05 09:33:02;;;;;;;20.32;14.30;;;;;;;14.11;61.25;101479.19;1682383;84;22190;-69
2021/10/05 09:35:46;;;;;;;13.32;11.70;;;;;;;14.13;61.09;101477.92;1682556;84;21608;-71
2021/10/05 09:38:16;;;;;;;20.82;13.43;;;;;;;14.19;60.85;101483.77;1702519;82;21008;-69
2021/10/05 09:40:44;;;;;;;21.37;13.15;;;;;;;14.33;60.89;101480.34;1710553;82;21048;-67
2021/10/05 09:43:21;;;;;;;22.17;13.58;;;;;;;14.43;60.32;101469.81;1731911;82;21114;-70
2021/10/05 09:45:48;;;;;;;17.30;11.05;;;;;;;14.55;59.74;101475.23;1731957;82;21024;-68
2021/10/05 09:48:14;;;;;;;24.43;13.55;;;;;;;14.62;58.44;101471.39;1704060;82;21521;-71
2021/10/05 09:50:41;;;;;;;19.52;14.38;;;;;;;14.65;58.53;101470.91;1703384;82;21139;-69
2021/10/05 09:53:11;;;;;;;23.67;13.58;;;;;;;14.71;58.22;101470.51;1702554;83;21096;-68
2021/10/05 09:55:41;;;;;;;22.27;14.55;;;;;;;14.78;57.60;101473.39;1705825;82;21048;-69
2021/10/05 09:58:08;;;;;;;16.00;11.88;;;;;;;14.82;56.62;101469.67;1717034;82;21548;-68
2021/10/05 10:00:42;;;;;;;15.20;11.93;;;;;;;14.92;56.12;101467.73;1706810;82;21068;-69
2021/10/05 10:03:08;;;;;;;22.62;12.40;;;;;;;14.99;54.96;101461.69;1702496;84;21004;-69
2021/10/05 10:05:40;;;;;;;20.32;11.28;;;;;;;15.09;54.04;101463.28;1708916;82;21064;-70
2021/10/05 10:08:07;;;;;;;16.65;10.08;;;;;;;15.18;53.24;101468.64;1702781;84;21939;-70
2021/10/05 10:21:50;;;;;;;14.90;9.23;;;;;;;15.96;51.24;101457.30;1867694;75;22594;-71
2021/10/05 10:24:20;;;;;;;10.90;8.23;;;;;;;16.05;50.43;101465.34;1776394;78;20951;-71
2021/10/05 10:26:49;;;;;;;11.97;8.93;;;;;;;16.09;49.10;101455.64;1825296;78;21151;-72
2021/10/05 10:29:27;;;;;;;14.38;7.72;;;;;;;16.07;48.74;101455.05;1790056;80;21026;-69
2021/10/05 10:31:53;;;;;;;17.52;9.00;;;;;;;16.05;48.61;101463.98;1743644;81;21793;-71
2021/10/05 10:34:21;;;;;;;8.65;7.70;;;;;;;16.03;48.22;101452.53;1789875;80;21468;-71
2021/10/05 10:36:48;;;;;;;10.08;8.80;;;;;;;16.04;48.81;101448.23;1746304;80;21004;-70
2021/10/05 10:39:19;;;;;;;9.33;8.43;;;;;;;16.09;48.93;101445.61;1755815;80;21189;-71
2021/10/05 10:41:59;;;;;;;11.22;8.03;;;;;;;16.11;47.25;101442.09;1784463;80;20964;-69
2021/10/05 10:44:30;;;;;;;9.20;7.70;;;;;;;16.02;46.92;101446.27;1784974;80;20937;-74
2021/10/05 10:47:10;;;;;;;7.83;7.03;;;;;;;16.01;47.07;101441.94;1755838;80;20991;-75
2021/10/05 10:49:36;;;;;;;12.90;8.48;;;;;;;16.02;47.10;101446.27;1763072;80;21086;-73
2021/10/05 10:52:03;;;;;;;14.87;8.10;;;;;;;16.03;46.62;101438.42;1790215;79;21045;-72
2021/10/05 10:54:30;;;;;;;12.43;8.85;;;;;;;16.09;46.64;101438.82;1790184;80;20994;-72
2021/10/05 10:57:08;;;;;;;15.55;10.40;;;;;;;16.16;46.76;101426.47;1798441;78;20908;-73
2021/10/05 10:59:35;;;;;;;14.60;9.35;;;;;;;16.19;46.60;101423.25;1781584;79;21017;-72
2021/10/05 11:02:04;;;;;;;14.13;10.20;;;;;;;16.27;46.26;101425.55;1734548;81;20996;-71
2021/10/05 11:04:31;;;;;;;15.90;8.73;;;;;;;16.39;45.97;101424.97;1766421;81;21148;-70
2021/10/05 11:06:58;;;;;;;19.25;9.90;;;;;;;16.50;45.85;101421.86;1774337;80;21005;-71
2021/10/05 11:09:30;;;;;;;14.87;8.73;;;;;;;16.58;46.11;101420.14;1745910;81;21503;-71
2021/10/05 11:11:59;;;;;;;12.15;7.58;;;;;;;16.67;45.58;101415.94;1770745;80;20923;-72
2021/10/05 11:14:31;;;;;;;9.10;7.08;;;;;;;16.68;45.12;101414.88;1740496;81;21038;-70
2021/10/05 11:17:04;;;;;;;19.67;7.80;;;;;;;16.57;44.93;101416.57;1753615;81;21054;-71
2021/10/05 11:19:38;;;;;;;11.97;7.95;;;;;;;16.51;45.05;101414.84;1739988;81;21618;-71
2021/10/05 11:22:09;;;;;;;16.85;9.25;;;;;;;16.38;45.53;101412.45;1758490;81;21533;-71
2021/10/05 11:24:45;;;;;;;12.82;8.80;;;;;;;16.31;45.34;101407.70;1758359;81;21099;-75
2021/10/05 11:27:17;;;;;;;14.80;9.68;;;;;;;16.29;45.64;101411.74;1779458;80;21012;-68
2021/10/05 11:29:45;;;;;;;16.93;7.40;;;;;;;16.30;45.67;101407.44;1768027;80;21134;-70